Time;durP1;ratioP1;P1;durP2;ratioP2;P2;SDS_P1;SDS_P2;PMS_P1;PMS_P2;Temp;Humidity;BMP_temperature;BMP_pressure;BME280_temperature;BME280_humidity;BME280_pressure;Samples;Min_cycle;Max_cycle;Signal;HPM_P1;HPM_P2
2023/04/25 00:00:41;;;;;;;21.65;4.82;;;5.60;99.90;;;;;;5046437;28;20044;-67
2023/04/25 00:03:08;;;;;;;23.52;5.25;;;5.60;99.90;;;;;;5048920;28;20041;-67
2023/04/25 00:05:36;;;;;;;21.52;4.90;;;5.50;99.90;;;;;;5049463;28;20128;-67
2023/04/25 00:08:03;;;;;;;23.65;5.43;;;5.40;99.90;;;;;;5050867;28;20044;-68
2023/04/25 00:10:28;;;;;;;26.98;5.78;;;5.30;99.90;;;;;;5047561;28;20040;-68
2023/04/25 00:12:54;;;;;;;23.40;5.00;;;5.30;99.90;;;;;;5048844;28;20044;-67
2023/04/25 00:15:19;;;;;;;18.05;4.70;;;5.20;99.90;;;;;;5049170;28;20072;-68
2023/04/25 00:17:45;;;;;;;18.05;4.80;;;5.20;99.90;;;;;;5050233;28;20132;-69
2023/04/25 00:20:11;;;;;;;24.23;5.90;;;5.10;99.90;;;;;;5050147;28;20094;-67
2023/04/25 00:22:37;;;;;;;24.60;5.30;;;5.00;99.90;;;;;;5044701;28;20094;-67
2023/04/25 00:25:06;;;;;;;21.17;5.43;;;5.00;99.90;;;;;;5044438;28;20040;-68
2023/04/25 00:27:32;;;;;;;17.60;4.93;;;5.00;99.90;;;;;;5043778;28;20458;-68
2023/04/25 00:29:58;;;;;;;20.70;4.63;;;5.00;99.90;;;;;;5042831;28;20032;-67
2023/04/25 00:32:23;;;;;;;16.02;4.53;;;4.90;99.90;;;;;;5045860;28;20044;-67
2023/04/25 00:35:02;;;;;;;20.33;4.70;;;4.90;99.90;;;;;;5043213;28;20086;-67
2023/04/25 00:37:28;;;;;;;26.02;5.05;;;4.90;99.90;;;;;;5041347;28;20556;-67
2023/04/25 00:39:55;;;;;;;19.08;4.93;;;4.80;99.90;;;;;;5047458;28;20123;-67
2023/04/25 00:42:21;;;;;;;18.40;4.90;;;4.80;99.90;;;;;;5049461;28;20052;-68
2023/04/25 00:44:47;;;;;;;19.70;5.18;;;4.80;99.90;;;;;;5043487;28;20052;-68
2023/04/25 00:47:13;;;;;;;15.30;4.57;;;4.70;99.90;;;;;;5046103;28;20040;-69
2023/04/25 00:49:39;;;;;;;19.75;4.60;;;4.70;99.90;;;;;;5048184;28;20402;-67
2023/04/25 00:52:05;;;;;;;19.75;4.75;;;4.70;99.90;;;;;;5029912;28;20098;-68
2023/04/25 00:54:35;;;;;;;25.38;5.45;;;4.60;99.90;;;;;;5044257;28;20546;-67
2023/04/25 00:57:01;;;;;;;26.67;4.95;;;4.70;99.90;;;;;;5046361;28;20059;-68
2023/04/25 00:59:29;;;;;;;17.40;4.15;;;4.60;99.90;;;;;;5047208;28;20055;-68
2023/04/25 01:01:55;;;;;;;20.73;4.47;;;4.60;99.90;;;;;;5047188;28;20426;-67
2023/04/25 01:04:24;;;;;;;17.77;4.63;;;4.60;99.90;;;;;;5050730;28;20044;-68
2023/04/25 01:06:50;;;;;;;21.23;4.90;;;4.50;99.90;;;;;;5051336;28;20045;-67
2023/04/25 01:09:16;;;;;;;25.00;5.05;;;4.60;99.90;;;;;;5049288;28;20174;-67
2023/04/25 01:11:41;;;;;;;19.75;4.30;;;4.50;99.90;;;;;;5049558;28;20081;-68
2023/04/25 01:14:15;;;;;;;21.27;5.07;;;4.50;99.90;;;;;;5050804;28;20071;-67
2023/04/25 01:16:42;;;;;;;21.38;4.43;;;4.50;99.90;;;;;;5040543;28;20045;-68
2023/04/25 01:19:12;;;;;;;20.42;4.95;;;4.50;99.90;;;;;;5045983;28;20079;-68
2023/04/25 01:21:38;;;;;;;22.73;4.43;;;4.50;99.90;;;;;;5041615;28;20075;-68
2023/04/25 01:24:05;;;;;;;18.75;4.85;;;4.60;99.90;;;;;;5045080;28;20116;-69
2023/04/25 01:26:31;;;;;;;15.93;4.25;;;4.70;99.90;;;;;;5049085;28;20127;-68
2023/04/25 01:28:57;;;;;;;20.10;4.90;;;4.70;99.90;;;;;;5043181;28;20053;-69
2023/04/25 01:31:23;;;;;;;23.33;5.45;;;4.80;99.90;;;;;;5042923;28;20053;-69
2023/04/25 01:33:49;;;;;;;15.38;4.50;;;4.90;99.90;;;;;;5043879;28;20029;-68
2023/04/25 01:36:15;;;;;;;17.23;4.75;;;5.00;99.90;;;;;;5041302;28;20033;-68
2023/04/25 01:38:41;;;;;;;18.42;4.80;;;5.10;99.90;;;;;;5042908;28;20047;-68
2023/04/25 01:41:07;;;;;;;21.05;5.07;;;5.10;99.90;;;;;;5045455;28;20047;-67
2023/04/25 01:43:33;;;;;;;17.85;4.88;;;5.10;99.90;;;;;;5046217;28;20045;-69
2023/04/25 01:45:59;;;;;;;20.25;5.22;;;5.20;99.90;;;;;;5047035;28;20044;-68
2023/04/25 01:48:24;;;;;;;11.82;4.22;;;5.10;99.90;;;;;;5048775;28;20037;-68
2023/04/25 01:50:50;;;;;;;18.58;4.57;;;5.10;99.90;;;;;;5045397;28;20063;-68
2023/04/25 01:53:16;;;;;;;23.17;5.03;;;5.10;99.90;;;;;;5049322;28;20111;-68
2023/04/25 01:55:41;;;;;;;16.73;4.57;;;5.20;99.90;;;;;;5045038;28;20033;-69
2023/04/25 01:58:09;;;;;;;20.67;5.03;;;5.10;99.90;;;;;;5049416;28;20416;-68
2023/04/25 02:00:37;;;;;;;18.02;4.82;;;5.20;99.90;;;;;;5029943;28;20115;-68
2023/04/25 02:03:03;;;;;;;13.10;4.35;;;5.20;99.90;;;;;;5043698;28;20467;-68
2023/04/25 02:05:33;;;;;;;15.55;4.22;;;5.30;99.90;;;;;;5050465;28;20120;-68
2023/04/25 02:07:59;;;;;;;16.73;4.28;;;5.20;99.90;;;;;;5042965;28;20056;-68
2023/04/25 02:10:24;;;;;;;23.27;4.88;;;5.20;99.90;;;;;;5047690;28;20033;-69
2023/04/25 02:12:50;;;;;;;14.40;4.65;;;5.30;99.90;;;;;;5042632;28;20025;-69
2023/04/25 02:15:15;;;;;;;24.80;4.93;;;5.20;99.90;;;;;;5043990;28;20037;-69
2023/04/25 02:17:41;;;;;;;11.50;4.63;;;5.30;99.90;;;;;;5046871;28;20111;-69
2023/04/25 02:20:07;;;;;;;14.93;4.40;;;5.20;99.90;;;;;;5048307;28;20487;-68
2023/04/25 02:22:33;;;;;;;19.02;4.82;;;5.20;99.90;;;;;;5041991;28;20526;-69
2023/04/25 02:24:59;;;;;;;17.33;4.40;;;5.20;99.90;;;;;;5045021;28;20638;-69
2023/04/25 02:27:24;;;;;;;18.98;5.00;;;5.20;99.90;;;;;;5057194;28;20041;-68
2023/04/25 02:29:50;;;;;;;15.88;4.45;;;5.30;99.90;;;;;;5046321;28;20438;-69
2023/04/25 02:32:16;;;;;;;20.98;5.40;;;5.20;99.90;;;;;;5047876;28;20044;-70
2023/04/25 02:34:41;;;;;;;20.70;5.05;;;5.30;99.90;;;;;;5045650;28;20299;-69
2023/04/25 02:37:07;;;;;;;16.52;4.50;;;5.20;99.90;;;;;;5041258;28;20102;-70
2023/04/25 02:39:32;;;;;;;14.23;3.75;;;5.30;99.90;;;;;;5040251;28;20290;-69
2023/04/25 02:41:58;;;;;;;19.00;3.42;;;5.40;99.90;;;;;;5038611;28;20749;-71
2023/04/25 02:44:23;;;;;;;11.85;2.72;;;5.40;99.90;;;;;;5039623;28;20079;-68
2023/04/25 02:46:49;;;;;;;16.85;3.50;;;5.50;99.90;;;;;;5037796;28;20206;-68
2023/04/25 02:49:14;;;;;;;17.00;3.08;;;5.50;99.90;;;;;;5039854;28;20037;-69
2023/04/25 02:51:40;;;;;;;19.15;3.65;;;5.50;99.90;;;;;;5040032;28;20086;-68
2023/04/25 02:54:06;;;;;;;13.60;3.33;;;5.50;99.90;;;;;;5042030;28;20083;-69
2023/04/25 02:56:31;;;;;;;18.45;3.28;;;5.50;99.90;;;;;;5043345;28;20040;-70
2023/04/25 02:58:57;;;;;;;17.25;3.25;;;5.50;99.90;;;;;;5042519;28;20037;-69
2023/04/25 03:01:22;;;;;;;16.25;3.53;;;5.50;99.90;;;;;;5051070;28;20041;-68
2023/04/25 03:03:48;;;;;;;14.43;3.70;;;5.40;99.90;;;;;;5057271;28;20033;-68
2023/04/25 03:06:15;;;;;;;19.60;3.42;;;5.40;99.90;;;;;;5054876;28;20048;-68
2023/04/25 03:08:40;;;;;;;17.77;3.72;;;5.30;99.90;;;;;;5041228;28;20029;-68
2023/04/25 03:11:06;;;;;;;16.23;3.47;;;5.30;99.90;;;;;;5043578;28;20067;-68
2023/04/25 03:13:31;;;;;;;12.38;3.45;;;5.20;99.90;;;;;;5048813;28;20136;-68
2023/04/25 03:16:00;;;;;;;18.30;3.75;;;5.20;99.90;;;;;;5047015;28;20068;-70
2023/04/25 03:18:25;;;;;;;14.95;3.15;;;5.20;99.90;;;;;;5049789;28;20056;-69
2023/04/25 03:20:51;;;;;;;13.82;3.17;;;5.20;99.90;;;;;;5044440;28;20391;-69
2023/04/25 03:23:16;;;;;;;13.13;3.33;;;5.20;99.90;;;;;;5051142;28;20095;-69
2023/04/25 03:25:42;;;;;;;13.65;2.78;;;5.10;99.90;;;;;;5050582;28;20040;-69
2023/04/25 03:28:11;;;;;;;13.98;3.53;;;5.20;99.90;;;;;;5046165;28;20041;-68
2023/04/25 03:30:36;;;;;;;14.85;3.33;;;5.20;99.90;;;;;;5046082;28;20041;-69
2023/04/25 03:33:02;;;;;;;14.27;2.60;;;5.20;99.90;;;;;;5045800;28;20067;-69
2023/04/25 03:35:28;;;;;;;11.05;2.63;;;5.30;99.90;;;;;;5042588;28;20046;-70
2023/04/25 03:37:53;;;;;;;12.15;2.25;;;5.20;99.90;;;;;;5047358;28;20137;-70
2023/04/25 03:40:19;;;;;;;13.50;3.22;;;5.30;99.90;;;;;;5046016;28;20444;-69
2023/04/25 03:42:44;;;;;;;12.52;2.10;;;5.30;99.90;;;;;;5041814;28;20041;-68
2023/04/25 03:45:10;;;;;;;13.77;2.60;;;5.20;99.90;;;;;;5043483;28;20788;-69
2023/04/25 03:47:36;;;;;;;13.10;2.58;;;5.20;99.90;;;;;;5041998;28;20045;-70
2023/04/25 03:50:02;;;;;;;12.82;2.33;;;5.20;99.90;;;;;;5056860;28;20045;-69
2023/04/25 03:52:28;;;;;;;7.55;1.75;;;5.20;99.90;;;;;;5043694;28;20041;-70
2023/04/25 03:54:53;;;;;;;12.10;2.45;;;5.20;99.90;;;;;;5043687;28;20045;-71
2023/04/25 03:57:19;;;;;;;12.88;2.78;;;5.20;99.90;;;;;;5041640;28;20194;-69
2023/04/25 03:59:44;;;;;;;9.93;1.38;;;5.20;99.90;;;;;;5040978;28;20120;-68
2023/04/25 04:02:10;;;;;;;11.15;2.25;;;5.10;99.90;;;;;;5046866;28;20070;-69
2023/04/25 04:04:36;;;;;;;7.60;1.92;;;5.10;99.90;;;;;;5045071;28;20463;-70
2023/04/25 04:07:02;;;;;;;9.05;1.95;;;5.00;99.90;;;;;;5045714;28;20037;-69
2023/04/25 04:09:27;;;;;;;13.90;2.13;;;4.90;99.90;;;;;;5047017;28;20102;-69
2023/04/25 04:11:53;;;;;;;9.43;2.25;;;4.90;99.90;;;;;;5045658;28;20197;-69
2023/04/25 04:14:19;;;;;;;7.93;2.35;;;4.70;99.90;;;;;;5048290;28;20440;-69
2023/04/25 04:16:45;;;;;;;8.73;1.90;;;4.70;99.90;;;;;;5049396;28;20065;-70
2023/04/25 04:19:10;;;;;;;9.13;2.10;;;4.70;99.90;;;;;;5047296;28;20141;-70
2023/04/25 04:21:36;;;;;;;14.32;2.67;;;4.70;99.90;;;;;;5029917;28;20057;-70
2023/04/25 04:24:01;;;;;;;9.18;1.75;;;4.70;99.90;;;;;;5047077;28;20672;-72
2023/04/25 04:26:27;;;;;;;9.85;2.13;;;4.70;99.90;;;;;;5043705;28;20071;-69
2023/04/25 04:28:54;;;;;;;7.20;2.25;;;4.70;99.90;;;;;;5045566;28;20082;-70
2023/04/25 04:31:23;;;;;;;5.97;1.98;;;4.80;99.90;;;;;;5045803;28;20323;-69
2023/04/25 04:33:49;;;;;;;9.43;2.53;;;4.80;99.90;;;;;;5044369;28;20045;-71
2023/04/25 04:36:15;;;;;;;5.88;2.25;;;4.80;99.90;;;;;;5043902;28;20068;-69
2023/04/25 04:38:42;;;;;;;9.38;2.25;;;4.90;99.90;;;;;;5044212;28;20491;-69
2023/04/25 04:41:08;;;;;;;6.38;1.65;;;5.00;99.90;;;;;;5043223;28;20616;-70
2023/04/25 04:43:33;;;;;;;10.95;2.10;;;4.90;99.90;;;;;;5045116;28;20059;-70
2023/04/25 04:46:00;;;;;;;7.85;2.05;;;4.90;99.90;;;;;;5046039;28;20045;-70
2023/04/25 04:48:26;;;;;;;5.53;1.60;;;4.90;99.90;;;;;;5047017;28;20041;-69
2023/04/25 04:50:52;;;;;;;10.18;2.17;;;4.90;99.90;;;;;;5050777;28;20048;-68
2023/04/25 04:53:17;;;;;;;9.70;1.90;;;4.90;99.90;;;;;;5067239;28;20044;-69
2023/04/25 04:55:43;;;;;;;10.57;2.05;;;4.90;99.90;;;;;;5052118;28;20067;-69
2023/04/25 04:58:09;;;;;;;8.43;1.90;;;4.90;99.90;;;;;;5054405;28;20033;-70
2023/04/25 05:00:35;;;;;;;6.75;1.77;;;4.90;99.90;;;;;;5051241;28;20534;-70
2023/04/25 05:03:03;;;;;;;6.15;2.00;;;4.80;99.90;;;;;;5047851;28;20062;-69
2023/04/25 05:05:28;;;;;;;10.27;2.30;;;4.80;99.90;;;;;;5049921;28;20041;-69
2023/04/25 05:07:54;;;;;;;13.38;2.58;;;4.80;99.90;;;;;;5042997;28;20048;-69
2023/04/25 05:10:20;;;;;;;9.80;2.60;;;4.90;99.90;;;;;;5063946;28;20071;-70
2023/04/25 05:12:46;;;;;;;12.48;2.40;;;4.90;99.90;;;;;;5036741;28;20079;-69
2023/04/25 05:15:13;;;;;;;10.80;2.15;;;4.90;99.90;;;;;;5041125;28;20033;-70
2023/04/25 05:17:39;;;;;;;10.93;2.70;;;4.80;99.90;;;;;;5030290;28;20190;-69
2023/04/25 05:20:07;;;;;;;11.93;2.20;;;4.80;99.90;;;;;;5050395;28;20137;-70
2023/04/25 05:22:33;;;;;;;10.93;2.17;;;4.80;99.90;;;;;;5047209;28;20045;-70
2023/04/25 05:24:58;;;;;;;9.40;2.22;;;4.80;99.90;;;;;;5042726;28;20519;-70
2023/04/25 05:27:24;;;;;;;8.48;1.95;;;4.70;99.90;;;;;;5044541;28;20476;-69
2023/04/25 05:29:49;;;;;;;7.78;2.50;;;4.70;99.90;;;;;;5054785;28;20047;-70
2023/04/25 05:32:15;;;;;;;12.10;2.33;;;4.70;99.90;;;;;;5045972;28;20045;-70
2023/04/25 05:34:41;;;;;;;7.05;2.17;;;4.70;99.90;;;;;;5044379;28;20098;-69
2023/04/25 05:37:07;;;;;;;11.80;2.42;;;4.70;99.90;;;;;;5045350;28;20033;-69
2023/04/25 05:39:33;;;;;;;10.55;2.28;;;4.80;99.90;;;;;;5047402;28;20087;-70
2023/04/25 05:41:58;;;;;;;11.25;2.33;;;4.90;99.90;;;;;;5044859;28;20036;-69
2023/04/25 05:44:24;;;;;;;9.32;2.00;;;5.00;99.90;;;;;;5046830;28;20069;-70
2023/04/25 05:46:50;;;;;;;5.07;1.35;;;5.10;99.90;;;;;;5042435;28;21077;-70
2023/04/25 05:49:16;;;;;;;7.50;1.42;;;5.20;99.90;;;;;;5041815;28;20115;-70
2023/04/25 05:51:41;;;;;;;8.13;1.70;;;5.30;99.90;;;;;;5042510;28;20199;-67
2023/04/25 05:54:07;;;;;;;10.90;1.50;;;5.40;99.90;;;;;;5040899;28;20102;-71
2023/04/25 05:56:32;;;;;;;9.45;1.60;;;5.50;99.90;;;;;;5041850;28;20090;-70
2023/04/25 05:58:58;;;;;;;14.98;1.80;;;5.50;99.90;;;;;;5045216;28;20506;-69
2023/04/25 06:01:23;;;;;;;4.97;1.30;;;5.50;99.90;;;;;;5041437;28;20037;-68
2023/04/25 06:03:51;;;;;;;8.20;2.15;;;5.50;99.90;;;;;;5041814;28;20049;-70
2023/04/25 06:06:16;;;;;;;7.57;1.45;;;5.50;99.90;;;;;;5039409;28;20115;-69
2023/04/25 06:08:42;;;;;;;6.43;1.70;;;5.50;99.90;;;;;;5040881;28;20575;-68
2023/04/25 06:11:07;;;;;;;13.70;1.60;;;5.60;99.90;;;;;;5046093;28;20059;-68
2023/04/25 06:13:33;;;;;;;7.70;1.23;;;5.60;99.90;;;;;;5043719;28;20455;-70
2023/04/25 06:15:59;;;;;;;4.70;1.80;;;5.70;99.90;;;;;;5041656;28;20048;-70
2023/04/25 06:18:24;;;;;;;7.75;1.83;;;5.70;99.90;;;;;;5045058;28;20036;-69
2023/04/25 06:20:50;;;;;;;6.32;1.60;;;5.80;99.90;;;;;;5045228;28;20037;-71
2023/04/25 06:23:15;;;;;;;7.03;1.60;;;5.80;99.90;;;;;;5047082;28;20049;-67
2023/04/25 06:25:41;;;;;;;4.60;1.15;;;5.90;99.90;;;;;;5047151;28;20037;-68
2023/04/25 06:28:06;;;;;;;8.90;1.02;;;6.00;99.90;;;;;;5049523;28;20392;-68
2023/04/25 06:30:32;;;;;;;7.63;2.08;;;6.00;99.90;;;;;;5043903;28;20488;-69
2023/04/25 06:32:57;;;;;;;4.82;1.50;;;5.90;99.90;;;;;;5052093;28;20045;-69
2023/04/25 06:35:23;;;;;;;6.28;1.50;;;5.90;99.90;;;;;;5050642;28;20041;-68
2023/04/25 06:37:48;;;;;;;9.82;1.70;;;6.00;99.90;;;;;;5034097;28;20044;-68
2023/04/25 06:40:14;;;;;;;2.53;0.90;;;6.10;99.90;;;;;;5052403;28;20059;-69
2023/04/25 06:42:40;;;;;;;9.70;1.98;;;6.20;99.90;;;;;;5052418;28;20084;-69
2023/04/25 06:45:06;;;;;;;10.85;1.70;;;6.30;99.90;;;;;;5052313;28;20484;-68
2023/04/25 06:47:31;;;;;;;6.20;1.35;;;6.40;99.90;;;;;;5048447;28;20048;-71
2023/04/25 06:49:57;;;;;;;6.88;1.38;;;6.50;99.90;;;;;;5050959;28;20510;-69
2023/04/25 06:52:23;;;;;;;13.15;1.98;;;6.50;99.90;;;;;;5046361;28;20036;-67
2023/04/25 06:54:48;;;;;;;7.72;2.03;;;6.60;99.90;;;;;;5045916;28;20128;-68
2023/04/25 06:57:14;;;;;;;8.60;1.45;;;6.60;99.90;;;;;;5065241;28;20502;-68
2023/04/25 06:59:40;;;;;;;8.48;1.48;;;6.70;99.90;;;;;;5052529;28;20131;-69
2023/04/25 07:02:06;;;;;;;13.18;1.92;;;6.80;99.90;;;;;;5048087;28;20040;-69
2023/04/25 07:04:31;;;;;;;6.45;1.20;;;6.90;99.90;;;;;;5051033;28;20072;-71
2023/04/25 07:06:57;;;;;;;4.15;1.33;;;7.00;99.90;;;;;;5056929;28;20056;-70
2023/04/25 07:09:22;;;;;;;5.20;1.15;;;7.10;99.90;;;;;;5049020;28;20455;-71
2023/04/25 07:11:48;;;;;;;5.35;0.98;;;7.30;99.90;;;;;;5049508;28;20041;-71
2023/04/25 07:14:14;;;;;;;12.52;2.13;;;7.30;99.90;;;;;;5058044;28;20079;-70
2023/04/25 07:16:39;;;;;;;7.15;1.75;;;7.30;99.90;;;;;;5051374;28;20087;-69
2023/04/25 07:19:05;;;;;;;3.58;1.13;;;7.40;99.90;;;;;;5051727;28;20427;-71
2023/04/25 07:21:31;;;;;;;8.98;1.35;;;7.30;99.90;;;;;;5049825;28;20029;-69
2023/04/25 07:23:57;;;;;;;6.05;1.40;;;7.30;99.90;;;;;;5048178;28;20037;-68
2023/04/25 07:26:22;;;;;;;5.22;1.45;;;7.30;99.90;;;;;;5049780;28;20036;-69
2023/04/25 07:28:50;;;;;;;11.23;2.10;;;7.40;99.90;;;;;;5053340;28;20086;-68
2023/04/25 07:31:19;;;;;;;5.82;1.52;;;7.40;99.90;;;;;;5049585;28;20036;-69
2023/04/25 07:33:45;;;;;;;6.68;2.10;;;7.30;99.90;;;;;;5055526;28;20477;-66
2023/04/25 07:36:12;;;;;;;9.55;1.70;;;7.30;99.90;;;;;;5049775;28;20412;-68
2023/04/25 07:38:38;;;;;;;3.65;1.25;;;7.10;99.90;;;;;;5063270;28;20033;-71
2023/04/25 07:41:03;;;;;;;11.43;1.90;;;7.00;99.90;;;;;;5047880;28;20538;-71
2023/04/25 07:43:29;;;;;;;8.23;1.90;;;6.90;99.90;;;;;;5048781;28;20468;-73
2023/04/25 07:45:54;;;;;;;8.98;1.65;;;7.10;99.90;;;;;;5051007;28;20091;-70
2023/04/25 07:48:20;;;;;;;7.38;1.50;;;7.30;99.90;;;;;;5055251;28;20032;-68
2023/04/25 07:50:45;;;;;;;6.85;1.42;;;7.50;99.90;;;;;;5070758;28;20033;-70
2023/04/25 07:53:11;;;;;;;4.63;1.23;;;7.60;99.90;;;;;;5058232;28;20071;-68
2023/04/25 07:55:39;;;;;;;4.20;0.95;;;7.80;99.90;;;;;;5049354;28;20069;-70
2023/04/25 07:58:08;;;;;;;7.72;1.42;;;7.90;99.90;;;;;;5038558;28;20123;-71
2023/04/25 08:00:34;;;;;;;5.75;1.05;;;8.00;99.90;;;;;;5066477;28;20072;-75
2023/04/25 08:03:00;;;;;;;6.65;1.63;;;8.00;99.90;;;;;;5050016;28;20090;-71
2023/04/25 08:05:25;;;;;;;4.32;0.80;;;8.10;99.90;;;;;;5060377;28;20037;-69
2023/04/25 08:07:51;;;;;;;4.28;1.00;;;8.10;99.90;;;;;;5067720;28;20044;-72
2023/04/25 08:10:17;;;;;;;1.73;0.80;;;8.00;99.90;;;;;;5057418;28;20044;-72
2023/04/25 08:12:42;;;;;;;3.30;1.00;;;7.50;99.90;;;;;;5041952;28;20076;-71
2023/04/25 08:15:09;;;;;;;1.67;0.63;;;6.80;99.90;;;;;;5049494;28;20043;-73
2023/04/25 08:17:34;;;;;;;4.60;0.80;;;6.00;99.90;;;;;;5050527;28;20500;-70
2023/04/25 08:20:00;;;;;;;2.92;0.68;;;5.50;99.90;;;;;;5053238;28;20124;-70
2023/04/25 08:22:25;;;;;;;5.40;0.60;;;5.10;99.90;;;;;;5047160;28;20041;-69
2023/04/25 08:24:51;;;;;;;3.70;0.80;;;5.00;99.90;;;;;;5048138;28;20036;-73
2023/04/25 08:27:18;;;;;;;2.85;0.90;;;4.90;99.90;;;;;;5048359;28;20045;-73
2023/04/25 08:29:43;;;;;;;5.30;1.20;;;5.00;99.90;;;;;;5050909;28;20494;-71
2023/04/25 08:32:09;;;;;;;2.95;0.85;;;5.10;99.90;;;;;;5059437;28;20048;-70
2023/04/25 08:34:36;;;;;;;2.97;0.60;;;5.20;99.90;;;;;;5051732;28;20048;-70
2023/04/25 08:37:04;;;;;;;2.58;1.10;;;5.30;99.90;;;;;;5050705;28;20079;-71
2023/04/25 08:39:29;;;;;;;4.13;0.82;;;5.40;99.90;;;;;;5056569;28;20079;-72
2023/04/25 08:41:56;;;;;;;7.55;1.10;;;5.50;99.90;;;;;;5048225;28;20488;-69
2023/04/25 08:44:23;;;;;;;3.63;0.90;;;5.70;99.90;;;;;;5051420;28;20089;-71
2023/04/25 08:46:51;;;;;;;4.30;0.93;;;5.70;99.90;;;;;;5047207;28;20044;-72
2023/04/25 08:49:18;;;;;;;4.60;1.00;;;5.80;99.90;;;;;;5057903;28;20036;-72
2023/04/25 08:51:50;;;;;;;6.57;1.30;;;6.00;99.90;;;;;;5069773;28;20402;-73
2023/04/25 08:54:16;;;;;;;6.23;1.20;;;6.20;99.90;;;;;;5046994;28;20475;-70
2023/04/25 08:56:45;;;;;;;7.50;1.65;;;6.40;99.90;;;;;;5058881;28;20298;-69
2023/04/25 08:59:11;;;;;;;3.08;0.88;;;6.80;99.90;;;;;;5060992;28;20094;-71
2023/04/25 09:01:37;;;;;;;4.97;1.33;;;7.10;99.90;;;;;;5048075;28;20040;-69
2023/04/25 09:04:03;;;;;;;7.00;1.80;;;7.50;99.90;;;;;;5048561;28;20115;-71
2023/04/25 09:06:30;;;;;;;8.43;2.08;;;7.80;99.90;;;;;;5056909;28;20040;-71
2023/04/25 09:09:04;;;;;;;3.25;1.20;;;8.00;99.90;;;;;;5066014;28;20499;-69
2023/04/25 09:11:29;;;;;;;4.25;1.10;;;8.30;99.90;;;;;;5066610;28;20446;-67
2023/04/25 09:14:22;;;;;;;6.38;1.23;;;8.40;99.90;;;;;;5056173;28;20045;-73
2023/04/25 09:16:56;;;;;;;5.90;1.17;;;8.50;99.90;;;;;;5047094;28;20131;-71
2023/04/25 09:19:22;;;;;;;1.90;0.88;;;8.50;99.90;;;;;;5055246;28;20066;-68
2023/04/25 09:21:54;;;;;;;3.53;1.13;;;8.40;99.90;;;;;;5045517;28;20096;-73
2023/04/25 09:24:31;;;;;;;4.37;0.80;;;8.10;99.90;;;;;;5048326;28;20080;-70
2023/04/25 09:26:57;;;;;;;3.10;1.08;;;7.90;99.90;;;;;;5048955;28;20068;-70
2023/04/25 09:29:31;;;;;;;2.92;1.02;;;7.90;99.90;;;;;;5032410;28;20041;-71
2023/04/25 09:32:19;;;;;;;3.63;0.82;;;8.00;99.90;;;;;;5047969;28;20053;-69
2023/04/25 09:34:56;;;;;;;2.78;1.15;;;8.10;99.90;;;;;;5058500;28;20040;-69
2023/04/25 09:37:27;;;;;;;5.18;1.10;;;8.40;99.90;;;;;;5049694;28;20036;-68
2023/04/25 09:39:55;;;;;;;6.82;1.38;;;8.50;99.90;;;;;;5052417;28;20043;-71
2023/04/25 09:42:25;;;;;;;4.05;1.27;;;8.70;99.90;;;;;;5053988;28;20079;-68
2023/04/25 09:44:53;;;;;;;5.47;0.98;;;8.70;99.90;;;;;;5070499;28;20090;-68
2023/04/25 09:47:21;;;;;;;13.15;2.15;;;8.80;99.90;;;;;;5069360;28;20090;-71
2023/04/25 09:49:47;;;;;;;2.45;0.90;;;8.90;99.90;;;;;;5067034;28;20054;-67
2023/04/25 09:52:17;;;;;;;9.77;1.88;;;9.10;99.90;;;;;;5050071;28;20391;-69
2023/04/25 09:54:43;;;;;;;6.13;1.27;;;9.20;99.90;;;;;;5048004;28;20534;-71
2023/04/25 09:57:16;;;;;;;5.03;1.15;;;9.30;99.90;;;;;;5049846;28;20041;-72
2023/04/25 09:59:50;;;;;;;4.60;1.00;;;9.50;99.90;;;;;;5063037;28;20033;-69
2023/04/25 10:02:20;;;;;;;10.07;1.15;;;9.60;99.90;;;;;;5049464;28;20045;-72
2023/04/25 10:04:51;;;;;;;4.07;1.48;;;9.70;99.90;;;;;;5060895;28;20079;-68
2023/04/25 10:07:17;;;;;;;4.65;1.10;;;9.60;99.90;;;;;;5055295;28;20659;-69
2023/04/25 10:09:46;;;;;;;8.93;1.60;;;9.50;99.90;;;;;;5059474;28;20047;-68
2023/04/25 10:12:12;;;;;;;5.93;1.10;;;9.30;99.90;;;;;;5051912;28;20040;-68
2023/04/25 10:14:39;;;;;;;6.97;1.67;;;9.20;99.90;;;;;;5055089;28;20040;-74
2023/04/25 10:17:06;;;;;;;6.05;1.60;;;9.10;99.90;;;;;;5072982;28;20048;-71
2023/04/25 10:19:32;;;;;;;5.85;1.30;;;8.70;99.90;;;;;;5062128;28;20120;-70
2023/04/25 10:22:07;;;;;;;7.03;1.30;;;8.20;99.90;;;;;;5061026;28;20136;-69
2023/04/25 10:24:32;;;;;;;6.50;1.38;;;7.80;99.90;;;;;;5045321;28;20080;-69
2023/04/25 10:26:58;;;;;;;7.40;1.70;;;7.60;99.90;;;;;;5049380;28;20095;-69
2023/04/25 10:29:25;;;;;;;4.25;1.23;;;7.20;99.90;;;;;;5048517;28;20048;-71
2023/04/25 10:31:51;;;;;;;5.43;1.80;;;7.00;99.90;;;;;;5052125;28;20044;-71
2023/04/25 10:34:17;;;;;;;6.38;1.30;;;7.00;99.90;;;;;;5051901;28;20037;-70
2023/04/25 10:36:51;;;;;;;3.47;0.85;;;7.00;99.90;;;;;;5050217;28;20388;-69
2023/04/25 10:39:22;;;;;;;3.13;1.02;;;7.20;99.90;;;;;;5050106;28;20033;-67
2023/04/25 10:41:54;;;;;;;3.65;1.00;;;7.30;99.90;;;;;;5052383;28;20033;-70
2023/04/25 10:44:20;;;;;;;3.85;0.80;;;7.50;99.90;;;;;;5065429;28;20092;-70
2023/04/25 10:46:46;;;;;;;2.38;1.08;;;7.50;99.90;;;;;;5071768;28;20119;-69
2023/04/25 10:49:38;;;;;;;3.55;1.10;;;7.60;99.90;;;;;;5071134;28;20039;-68
2023/04/25 10:52:14;;;;;;;3.70;0.90;;;7.70;99.90;;;;;;5044542;28;20033;-69
2023/04/25 10:54:48;;;;;;;4.55;1.42;;;7.70;99.90;;;;;;5055618;28;20513;-70
2023/04/25 10:57:43;;;;;;;5.78;1.50;;;7.80;99.90;;;;;;5061132;28;20120;-68
2023/04/25 11:00:15;;;;;;;8.00;1.20;;;7.90;99.90;;;;;;5052452;28;20365;-69
2023/04/25 11:02:52;;;;;;;4.90;1.00;;;8.00;99.90;;;;;;5053049;28;20045;-69
2023/04/25 11:05:22;;;;;;;4.47;1.40;;;8.20;99.90;;;;;;5044279;28;20435;-72
2023/04/25 11:07:57;;;;;;;4.35;1.42;;;8.30;99.90;;;;;;5045228;28;20037;-71
2023/04/25 11:10:32;;;;;;;4.70;0.95;;;8.50;99.90;;;;;;5048072;28;20041;-70
2023/04/25 11:12:59;;;;;;;4.75;1.10;;;8.60;99.90;;;;;;5049670;28;20051;-70
2023/04/25 11:15:25;;;;;;;8.35;1.15;;;8.70;99.90;;;;;;5045611;28;20082;-68
2023/04/25 11:17:55;;;;;;;3.30;1.15;;;8.80;99.90;;;;;;5047949;28;20045;-69
2023/04/25 11:20:21;;;;;;;5.28;1.20;;;8.90;99.90;;;;;;5043809;28;21355;-69
2023/04/25 11:22:47;;;;;;;4.22;1.45;;;9.00;99.90;;;;;;5046613;28;20071;-68
2023/04/25 11:25:15;;;;;;;6.70;1.50;;;9.10;99.90;;;;;;5044392;28;20551;-70
2023/04/25 11:27:54;;;;;;;3.15;0.95;;;9.30;99.90;;;;;;5048292;28;20522;-67
2023/04/25 11:30:21;;;;;;;5.03;1.23;;;9.40;99.90;;;;;;5048583;28;20040;-71
2023/04/25 11:32:47;;;;;;;5.65;1.17;;;9.50;99.90;;;;;;5044882;28;20041;-68
2023/04/25 11:35:14;;;;;;;5.05;1.08;;;9.60;99.90;;;;;;5045255;28;20044;-73
2023/04/25 11:37:42;;;;;;;6.72;1.45;;;9.70;99.90;;;;;;5050850;28;20037;-69
2023/04/25 11:40:09;;;;;;;4.63;1.10;;;9.80;99.90;;;;;;5047148;28;20029;-68
2023/04/25 11:42:38;;;;;;;3.15;0.95;;;9.80;99.90;;;;;;5045861;28;20049;-66
2023/04/25 11:45:05;;;;;;;4.63;1.10;;;9.60;99.90;;;;;;5049205;28;20032;-67
2023/04/25 11:47:31;;;;;;;3.25;0.82;;;9.40;99.90;;;;;;5045380;28;20099;-68
2023/04/25 11:50:02;;;;;;;3.80;0.90;;;9.20;99.90;;;;;;5057848;28;20041;-64
2023/04/25 11:52:41;;;;;;;3.00;0.98;;;9.20;99.90;;;;;;5051393;28;20051;-69
2023/04/25 11:55:09;;;;;;;4.65;0.88;;;9.40;99.90;;;;;;5046865;28;20045;-67
2023/04/25 11:57:35;;;;;;;3.08;1.00;;;9.50;99.90;;;;;;5052559;28;20128;-68
2023/04/25 12:00:12;;;;;;;4.80;1.10;;;9.70;99.90;;;;;;5045168;28;20072;-68
2023/04/25 12:02:55;;;;;;;4.05;0.95;;;10.00;99.90;;;;;;5045920;28;20040;-67
2023/04/25 12:05:25;;;;;;;5.88;1.10;;;10.10;99.90;;;;;;5044319;28;20104;-69
2023/04/25 12:07:50;;;;;;;5.68;1.13;;;10.00;99.90;;;;;;5044215;28;20128;-68
2023/04/25 12:10:17;;;;;;;3.78;1.10;;;9.90;99.90;;;;;;5052620;28;20184;-68
2023/04/25 12:12:45;;;;;;;5.18;1.52;;;9.90;99.90;;;;;;5049402;28;20040;-67
2023/04/25 12:15:14;;;;;;;8.68;1.52;;;9.60;99.90;;;;;;5052229;28;20047;-67
2023/04/25 12:17:40;;;;;;;6.40;1.40;;;8.90;99.90;;;;;;5040095;28;20442;-67
2023/04/25 12:20:13;;;;;;;5.97;1.05;;;8.40;99.90;;;;;;5047144;28;20037;-65
2023/04/25 12:22:44;;;;;;;6.50;1.48;;;8.10;99.90;;;;;;5046455;28;20052;-70
2023/04/25 12:25:33;;;;;;;2.10;0.90;;;8.10;99.90;;;;;;5046986;28;20037;-66
2023/04/25 12:28:19;;;;;;;5.88;1.27;;;8.10;99.90;;;;;;5043309;28;20037;-70
2023/04/25 12:31:02;;;;;;;5.05;1.05;;;8.10;99.90;;;;;;5049832;28;20044;-69
2023/04/25 12:33:30;;;;;;;3.85;1.40;;;8.20;99.90;;;;;;5047994;28;20060;-67
2023/04/25 12:35:57;;;;;;;3.22;1.23;;;8.70;99.90;;;;;;5049589;28;20037;-67
2023/04/25 12:38:29;;;;;;;3.65;1.50;;;9.10;99.90;;;;;;5044001;28;20413;-69
2023/04/25 12:40:56;;;;;;;4.18;1.02;;;9.20;99.90;;;;;;5067845;28;20041;-67
2023/04/25 12:43:22;;;;;;;7.15;1.40;;;9.20;99.90;;;;;;5049307;28;20098;-69
2023/04/25 12:45:52;;;;;;;4.53;1.40;;;9.00;99.90;;;;;;5053832;28;20044;-66
2023/04/25 12:48:18;;;;;;;3.78;1.15;;;8.90;99.90;;;;;;5049006;28;20075;-66
2023/04/25 12:50:44;;;;;;;8.93;1.35;;;9.10;99.90;;;;;;5056802;28;20036;-69
2023/04/25 12:53:11;;;;;;;7.10;1.70;;;9.20;99.90;;;;;;5044608;28;20040;-70